KHMZ

Bedford County Airport

Bedford, Pennsylvania, USA
METAR KHMZ 201655Z AUTO 28008KT 10SM BKN029 BKN035 OVC065 12/07 A2978 RMK AO2 T01170071
Observed Flight Rules
Oct-20 @ 16:55 UTC (16 minutes ago) Marginal Visual Flight Rules
Wind Visibility Clouds
280° at 8 knots 10 miles
  • Broken at 2,900' AGL
  • Broken at 3,500' AGL
  • Overcast at 6,500' AGL
Temperatures Readings
Current 12°C / 54°F
Dewpoint 7°C / 45°F
Humidity 72%
Altimeter 29.78" Hg
Pressure 1008 hPa
Elevation 354
METAR KHMZ 201655Z AUTO 28008KT 10SM BKN029 BKN035 OVC065 12/07 A2978 RMK AO2 T01170071
Observed Flight Rules
Oct-20 @ 16:55 UTC
(16 minutes ago)
MVFR
Wind Visibility
280° at 8 knots 10 miles
Clouds
  • Broken at 2,900' AGL
  • Broken at 3,500' AGL
  • Overcast at 6,500' AGL
Temperature Dewpoint
12°C / 54°F 7°C / 45°F
Humidity Altimeter Pressure
72% 29.78" Hg 1008 hPa